Time;durP1;ratioP1;P1;durP2;ratioP2;P2;SDS_P1;SDS_P2;PMS_P1;PMS_P2;Temp;Humidity;BMP_temperature;BMP_pressure;BME280_temperature;BME280_humidity;BME280_pressure;Samples;Min_cycle;Max_cycle;Signal;HPM_P1;HPM_P2
2023/05/27 00:01:25;;;;;;;9.90;7.70;;;13.90;99.90;;;;;;4982485;28;20209;-78
2023/05/27 00:03:51;;;;;;;10.03;6.47;;;13.90;99.90;;;;;;4982248;28;20219;-78
2023/05/27 00:06:18;;;;;;;8.43;6.60;;;13.80;99.90;;;;;;4981246;28;20221;-78
2023/05/27 00:08:45;;;;;;;9.30;7.10;;;13.80;99.90;;;;;;4983387;28;20199;-78
2023/05/27 00:11:12;;;;;;;9.77;8.53;;;13.80;99.90;;;;;;4983163;28;20615;-78
2023/05/27 00:13:40;;;;;;;8.87;7.70;;;13.80;99.90;;;;;;4979370;28;20229;-78
2023/05/27 00:16:08;;;;;;;9.47;8.53;;;13.80;99.90;;;;;;4981406;28;20651;-78
2023/05/27 00:18:35;;;;;;;10.67;8.50;;;13.70;99.90;;;;;;4980781;28;20712;-78
2023/05/27 00:21:02;;;;;;;11.30;9.30;;;13.70;99.90;;;;;;4981519;28;20233;-78
2023/05/27 00:23:29;;;;;;;8.70;7.80;;;13.60;99.90;;;;;;4980908;28;20232;-78
2023/05/27 00:25:56;;;;;;;9.50;8.60;;;13.60;99.90;;;;;;4976342;28;20291;-78
2023/05/27 00:28:23;;;;;;;10.13;8.20;;;13.50;99.90;;;;;;4980619;28;20205;-78
2023/05/27 00:30:52;;;;;;;11.83;8.70;;;13.50;99.90;;;;;;4976778;28;20203;-79
2023/05/27 00:33:18;;;;;;;9.63;7.73;;;13.40;99.90;;;;;;4974658;28;20268;-78
2023/05/27 00:35:45;;;;;;;9.40;8.33;;;13.40;99.90;;;;;;4971347;28;20207;-78
2023/05/27 00:38:13;;;;;;;9.13;7.83;;;13.30;99.90;;;;;;4980670;28;20202;-78
2023/05/27 00:40:40;;;;;;;13.30;7.60;;;13.30;99.90;;;;;;4978761;28;20230;-77
2023/05/27 00:43:08;;;;;;;9.10;6.70;;;13.20;99.90;;;;;;4981140;28;20234;-78
2023/05/27 00:45:34;;;;;;;8.23;7.40;;;13.10;99.90;;;;;;4979547;28;20219;-78
2023/05/27 00:48:04;;;;;;;9.97;7.97;;;13.10;99.90;;;;;;4981857;28;20221;-78
2023/05/27 00:50:31;;;;;;;8.67;7.77;;;13.10;99.90;;;;;;4973442;28;20206;-78
2023/05/27 00:52:59;;;;;;;8.47;7.20;;;13.00;99.90;;;;;;4981372;28;20621;-78
2023/05/27 00:55:25;;;;;;;8.83;7.00;;;13.00;99.90;;;;;;4982110;28;20221;-78
2023/05/27 00:57:54;;;;;;;8.43;6.07;;;13.00;99.90;;;;;;4980790;28;20562;-78
2023/05/27 01:00:21;;;;;;;8.27;6.50;;;13.00;99.90;;;;;;4980949;28;20206;-78
2023/05/27 01:02:48;;;;;;;8.53;7.33;;;12.90;99.90;;;;;;4982187;28;20234;-78
2023/05/27 01:05:17;;;;;;;8.30;7.37;;;12.90;99.90;;;;;;4981208;28;20224;-79
2023/05/27 01:08:00;;;;;;;8.80;6.90;;;12.90;99.90;;;;;;4980246;28;20221;-78
2023/05/27 01:10:33;;;;;;;8.03;6.67;;;12.80;99.90;;;;;;4980505;28;20220;-78
2023/05/27 01:13:02;;;;;;;8.10;6.87;;;12.80;99.90;;;;;;4980087;28;20205;-78
2023/05/27 01:15:32;;;;;;;7.37;6.57;;;12.80;99.90;;;;;;4981050;28;20205;-78
2023/05/27 01:18:02;;;;;;;7.63;6.00;;;12.80;99.90;;;;;;4981866;28;20198;-78
2023/05/27 01:20:31;;;;;;;8.03;5.77;;;12.80;99.90;;;;;;4982056;28;20217;-78
2023/05/27 01:23:01;;;;;;;8.03;6.83;;;12.80;99.90;;;;;;4983048;28;20728;-78
2023/05/27 01:25:28;;;;;;;11.87;7.00;;;12.70;99.90;;;;;;4980054;28;20217;-78
2023/05/27 01:27:56;;;;;;;7.80;7.00;;;12.60;99.90;;;;;;4979415;28;20245;-78
2023/05/27 01:30:23;;;;;;;8.13;6.90;;;12.60;99.90;;;;;;4979831;28;20305;-78
2023/05/27 01:32:55;;;;;;;8.80;7.10;;;12.50;99.90;;;;;;4979561;28;20216;-78
2023/05/27 01:35:28;;;;;;;8.97;6.90;;;12.50;99.90;;;;;;4979670;28;20718;-78
2023/05/27 01:37:57;;;;;;;9.53;7.07;;;12.40;99.90;;;;;;4980742;28;20190;-78
2023/05/27 01:40:25;;;;;;;9.17;6.87;;;12.30;99.90;;;;;;4987509;28;20205;-78
2023/05/27 01:42:53;;;;;;;12.77;7.03;;;12.30;99.90;;;;;;4982690;28;20198;-77
2023/05/27 01:45:20;;;;;;;8.67;7.00;;;12.30;99.90;;;;;;4979101;28;20201;-78
2023/05/27 01:47:47;;;;;;;12.00;7.00;;;12.20;99.90;;;;;;4979448;28;20758;-78
2023/05/27 01:50:15;;;;;;;10.50;6.30;;;12.20;99.90;;;;;;4979479;28;20221;-78
2023/05/27 01:52:42;;;;;;;8.20;6.90;;;12.20;99.90;;;;;;4981828;28;20228;-78
2023/05/27 01:55:10;;;;;;;8.27;6.50;;;12.20;99.90;;;;;;4977684;28;20226;-77
2023/05/27 01:57:39;;;;;;;7.70;5.90;;;12.20;99.90;;;;;;4979079;28;20201;-78
2023/05/27 02:00:09;;;;;;;6.87;5.17;;;12.20;99.90;;;;;;4978636;28;20746;-78
2023/05/27 02:02:43;;;;;;;9.77;6.33;;;12.10;99.90;;;;;;4978165;28;20244;-78
2023/05/27 02:05:13;;;;;;;10.40;7.27;;;12.10;99.90;;;;;;4972985;28;20229;-78
2023/05/27 02:07:41;;;;;;;7.13;6.07;;;12.10;99.90;;;;;;4977908;28;20217;-78
2023/05/27 02:10:09;;;;;;;9.20;7.37;;;12.00;99.90;;;;;;4978329;28;20205;-78
2023/05/27 02:12:36;;;;;;;9.97;7.80;;;12.00;99.90;;;;;;4975077;28;20228;-78
2023/05/27 02:15:08;;;;;;;8.20;6.43;;;11.90;99.90;;;;;;4978101;28;20221;-78
2023/05/27 02:17:36;;;;;;;7.00;6.30;;;11.90;99.90;;;;;;4978923;28;20200;-78
2023/05/27 02:20:04;;;;;;;7.43;6.57;;;11.90;99.90;;;;;;4989544;28;20201;-78
2023/05/27 02:22:31;;;;;;;9.93;6.00;;;11.90;99.90;;;;;;4982586;28;20680;-78
2023/05/27 02:24:58;;;;;;;10.13;5.43;;;11.90;99.90;;;;;;4984034;28;20311;-78
2023/05/27 02:27:24;;;;;;;10.47;5.17;;;11.80;99.90;;;;;;4977718;28;20220;-78
2023/05/27 02:29:51;;;;;;;8.53;6.30;;;11.80;99.90;;;;;;4968993;28;20276;-79
2023/05/27 02:32:19;;;;;;;9.03;5.97;;;11.70;99.90;;;;;;4975010;28;20205;-78
2023/05/27 02:34:46;;;;;;;7.20;5.77;;;11.70;99.90;;;;;;4993334;28;20218;-78
2023/05/27 02:37:13;;;;;;;10.67;6.43;;;11.70;99.90;;;;;;4977647;28;20204;-78
2023/05/27 02:39:41;;;;;;;8.20;6.20;;;11.70;99.90;;;;;;4973581;28;20205;-78
2023/05/27 02:42:08;;;;;;;8.13;6.10;;;11.60;99.90;;;;;;4979992;28;20276;-78
2023/05/27 02:44:35;;;;;;;9.47;5.73;;;11.40;99.90;;;;;;4974570;28;20228;-78
2023/05/27 02:47:01;;;;;;;9.87;6.37;;;11.40;99.90;;;;;;4977576;28;20228;-78
2023/05/27 02:49:30;;;;;;;9.27;5.67;;;11.40;99.90;;;;;;4977314;28;20640;-77
2023/05/27 02:51:57;;;;;;;9.33;6.03;;;11.40;99.90;;;;;;4973529;28;20201;-78
2023/05/27 02:54:24;;;;;;;7.50;5.53;;;11.40;99.90;;;;;;4992446;28;20247;-78
2023/05/27 02:56:51;;;;;;;10.10;6.53;;;11.40;99.90;;;;;;4971585;28;20201;-78
2023/05/27 02:59:18;;;;;;;7.33;6.20;;;11.30;99.90;;;;;;4978143;28;20204;-78
2023/05/27 03:01:44;;;;;;;10.47;6.27;;;11.30;99.90;;;;;;4977130;28;20213;-78
2023/05/27 03:04:11;;;;;;;10.97;5.90;;;11.30;99.90;;;;;;4974265;28;20224;-78
2023/05/27 03:06:40;;;;;;;9.00;5.93;;;11.30;99.90;;;;;;4988716;28;20205;-78
2023/05/27 03:09:07;;;;;;;11.33;6.07;;;11.20;99.90;;;;;;4976770;28;20291;-78
2023/05/27 03:11:34;;;;;;;7.53;6.80;;;11.20;99.90;;;;;;4976818;28;20203;-78
2023/05/27 03:14:01;;;;;;;12.33;7.57;;;11.10;99.90;;;;;;4968124;28;20282;-79
2023/05/27 03:16:28;;;;;;;12.00;6.83;;;11.10;99.90;;;;;;4970535;28;20205;-79
2023/05/27 03:18:55;;;;;;;10.73;6.53;;;11.10;99.90;;;;;;4971594;28;20221;-78
2023/05/27 03:21:22;;;;;;;11.30;7.60;;;11.00;99.90;;;;;;4990763;28;20215;-79
2023/05/27 03:23:53;;;;;;;9.27;6.00;;;11.00;99.90;;;;;;4974618;28;20693;-78
2023/05/27 03:26:28;;;;;;;8.40;6.17;;;11.00;99.90;;;;;;4974443;28;20253;-78
2023/05/27 03:29:11;;;;;;;9.57;6.40;;;10.90;99.90;;;;;;4966501;28;20225;-78
2023/05/27 03:31:40;;;;;;;10.97;6.50;;;10.90;99.90;;;;;;4975462;28;20198;-78
2023/05/27 03:34:12;;;;;;;9.03;7.43;;;10.90;99.90;;;;;;4974465;28;20262;-78
2023/05/27 03:36:42;;;;;;;9.20;6.03;;;10.90;99.90;;;;;;4973352;28;20199;-78
2023/05/27 03:39:20;;;;;;;10.50;5.77;;;10.90;99.90;;;;;;4973647;28;20199;-79
2023/05/27 03:42:05;;;;;;;13.60;7.40;;;10.90;99.90;;;;;;4964061;28;20201;-78
2023/05/27 03:44:40;;;;;;;10.00;6.40;;;11.00;99.90;;;;;;4959822;28;20224;-77
2023/05/27 03:47:10;;;;;;;7.77;6.80;;;11.00;99.90;;;;;;4972500;28;20241;-78
2023/05/27 03:49:37;;;;;;;13.50;7.80;;;11.00;99.90;;;;;;4964218;28;20209;-78
2023/05/27 03:52:09;;;;;;;12.40;8.03;;;11.00;99.90;;;;;;4965763;28;20207;-79
2023/05/27 03:54:42;;;;;;;10.40;8.03;;;11.00;99.90;;;;;;4973199;28;20222;-78
2023/05/27 03:57:10;;;;;;;10.43;7.83;;;11.00;99.90;;;;;;4967179;28;20204;-79
2023/05/27 03:59:45;;;;;;;11.30;7.37;;;11.00;99.90;;;;;;4965588;28;20701;-79
2023/05/27 04:02:24;;;;;;;12.27;7.33;;;11.00;99.90;;;;;;4961082;28;20699;-79
2023/05/27 04:04:54;;;;;;;11.70;7.47;;;11.00;99.90;;;;;;4968448;28;20580;-79
2023/05/27 04:07:33;;;;;;;10.47;7.43;;;11.00;99.90;;;;;;4977194;28;20217;-78
2023/05/27 04:10:01;;;;;;;12.20;7.90;;;11.00;99.90;;;;;;4970958;28;20211;-79
2023/05/27 04:12:33;;;;;;;9.27;7.43;;;11.10;99.90;;;;;;4974942;28;20216;-81
2023/05/27 04:18:30;;;;;;;9.70;6.03;;;11.20;99.90;;;;;;4876314;29;20226;-78
2023/05/27 04:20:58;;;;;;;8.20;5.70;;;11.20;99.90;;;;;;4890127;28;20201;-78
2023/05/27 04:23:25;;;;;;;13.33;6.10;;;11.30;99.90;;;;;;4972042;28;20250;-78
2023/05/27 04:25:53;;;;;;;10.43;6.50;;;11.40;99.90;;;;;;4984323;28;20204;-78
2023/05/27 04:28:23;;;;;;;11.07;6.00;;;11.40;99.90;;;;;;4977415;28;20275;-79
2023/05/27 04:30:53;;;;;;;8.53;5.60;;;11.50;99.90;;;;;;4976598;28;20651;-78
2023/05/27 04:33:37;;;;;;;10.20;6.50;;;11.60;99.90;;;;;;4973548;28;20252;-78
2023/05/27 04:36:04;;;;;;;8.37;5.80;;;11.70;99.90;;;;;;4976585;28;20256;-78
2023/05/27 04:38:40;;;;;;;9.87;5.87;;;11.70;99.90;;;;;;4976279;28;20200;-78
2023/05/27 04:41:12;;;;;;;9.50;5.50;;;11.90;99.90;;;;;;4975840;28;20616;-79
2023/05/27 04:44:06;;;;;;;10.37;6.00;;;12.10;99.90;;;;;;4967990;28;20280;-80
2023/05/27 04:46:38;;;;;;;7.93;5.17;;;12.30;99.90;;;;;;4974870;28;20194;-79
2023/05/27 04:49:05;;;;;;;5.87;4.67;;;12.40;99.90;;;;;;4976421;28;20229;-79
2023/05/27 04:51:35;;;;;;;9.30;4.70;;;12.60;99.90;;;;;;4978258;28;20584;-79
2023/05/27 04:54:02;;;;;;;8.47;4.73;;;12.80;99.90;;;;;;4967620;28;20685;-79
2023/05/27 04:56:38;;;;;;;9.53;5.50;;;13.00;99.90;;;;;;4975127;28;20228;-80
2023/05/27 04:59:05;;;;;;;8.80;4.90;;;13.20;99.90;;;;;;4971173;28;20197;-79
2023/05/27 05:05:33;;;;;;;11.10;4.83;;;13.50;99.90;;;;;;4877956;29;20221;-79
2023/05/27 05:08:47;;;;;;;6.10;4.53;;;13.80;99.90;;;;;;4872062;29;20297;-79
2023/05/27 05:11:42;;;;;;;9.20;5.33;;;14.00;99.90;;;;;;4903378;29;20575;-79
2023/05/27 05:14:34;;;;;;;10.33;4.77;;;14.10;99.90;;;;;;4908189;29;20315;-79
2023/05/27 05:17:10;;;;;;;7.53;4.33;;;14.20;99.90;;;;;;4894143;29;20241;-79
2023/05/27 05:22:37;;;;;;;11.20;5.37;;;14.80;99.90;;;;;;4973663;28;20235;-80
2023/05/27 05:25:07;;;;;;;10.20;5.13;;;14.90;99.90;;;;;;4966981;28;20308;-80
2023/05/27 05:27:42;;;;;;;8.27;4.77;;;14.80;99.90;;;;;;4967629;28;20219;-80
2023/05/27 05:30:09;;;;;;;9.83;4.63;;;15.00;99.90;;;;;;4978150;28;20199;-80
2023/05/27 05:32:37;;;;;;;9.47;4.73;;;15.10;99.90;;;;;;4976909;28;20208;-79
2023/05/27 05:35:05;;;;;;;10.20;5.07;;;15.10;99.90;;;;;;4973384;28;20714;-80
2023/05/27 05:37:34;;;;;;;14.10;4.77;;;15.20;99.90;;;;;;4968128;28;20225;-80
2023/05/27 05:40:01;;;;;;;10.27;4.87;;;15.40;99.90;;;;;;4983507;28;20201;-80
2023/05/27 05:42:31;;;;;;;7.57;4.13;;;15.70;99.90;;;;;;4985131;28;20225;-80
2023/05/27 05:44:59;;;;;;;11.30;4.83;;;16.00;99.90;;;;;;4976543;28;20232;-80
2023/05/27 05:47:26;;;;;;;10.50;5.40;;;16.40;99.90;;;;;;4981666;28;20213;-80
2023/05/27 05:50:03;;;;;;;11.47;5.17;;;16.80;99.90;;;;;;4971973;28;20718;-79
2023/05/27 05:52:32;;;;;;;8.37;4.57;;;17.00;99.90;;;;;;4981064;28;20203;-80
2023/05/27 05:54:58;;;;;;;9.60;4.83;;;17.70;99.90;;;;;;4973493;28;20250;-80
2023/05/27 05:57:25;;;;;;;13.40;4.97;;;18.10;99.90;;;;;;4974619;28;20207;-79
2023/05/27 05:59:52;;;;;;;9.93;4.47;;;18.20;99.90;;;;;;4980614;28;20665;-80
2023/05/27 06:02:20;;;;;;;12.17;5.67;;;18.40;99.90;;;;;;4973063;28;20211;-80
2023/05/27 06:04:48;;;;;;;11.37;4.97;;;18.50;99.90;;;;;;4975531;28;20313;-79
2023/05/27 06:07:18;;;;;;;13.27;5.50;;;18.50;99.90;;;;;;4985443;28;20205;-80
2023/05/27 06:09:50;;;;;;;9.40;5.20;;;19.00;99.90;;;;;;4967455;28;20215;-80
2023/05/27 06:12:31;;;;;;;9.17;5.37;;;19.00;99.90;;;;;;4977909;28;20261;-77
2023/05/27 06:14:58;;;;;;;12.93;5.73;;;19.00;99.90;;;;;;4977172;28;20230;-79
2023/05/27 06:17:34;;;;;;;13.03;7.33;;;18.50;99.90;;;;;;4972866;28;20201;-80
2023/05/27 06:20:01;;;;;;;10.50;6.97;;;18.30;99.90;;;;;;4973445;28;20248;-77
2023/05/27 06:22:29;;;;;;;9.37;7.20;;;18.10;99.90;;;;;;4973981;28;20193;-79
2023/05/27 06:25:20;;;;;;;10.97;5.67;;;18.50;99.90;;;;;;4966771;28;20202;-78
2023/05/27 06:27:56;;;;;;;10.60;7.50;;;18.40;99.90;;;;;;4982552;28;20743;-79
2023/05/27 06:30:23;;;;;;;13.30;8.03;;;18.60;99.90;;;;;;4973633;28;20588;-79
2023/05/27 06:32:52;;;;;;;14.17;8.33;;;18.70;99.90;;;;;;4961190;28;20201;-79
2023/05/27 06:35:21;;;;;;;11.27;6.70;;;19.10;99.90;;;;;;4970162;28;20300;-78
2023/05/27 06:37:48;;;;;;;8.83;6.00;;;19.40;99.90;;;;;;4973737;28;20863;-79
2023/05/27 06:40:17;;;;;;;13.50;7.00;;;19.80;99.90;;;;;;4970857;28;20205;-79
2023/05/27 06:42:44;;;;;;;11.77;5.50;;;19.90;99.90;;;;;;4972632;28;20194;-79
2023/05/27 06:45:30;;;;;;;9.57;6.40;;;20.10;99.90;;;;;;4975663;28;20295;-79
2023/05/27 06:48:18;;;;;;;10.80;7.70;;;20.70;99.90;;;;;;4971548;28;20241;-79
2023/05/27 06:50:45;;;;;;;9.93;6.50;;;21.10;99.90;;;;;;4969938;28;20214;-80
2023/05/27 06:53:13;;;;;;;12.30;7.13;;;21.10;99.90;;;;;;4972057;28;20579;-79
2023/05/27 06:55:59;;;;;;;11.30;5.93;;;21.20;99.90;;;;;;4971607;28;20202;-78
2023/05/27 06:58:31;;;;;;;10.33;8.23;;;21.50;99.90;;;;;;4973948;28;20190;-80
2023/05/27 07:01:03;;;;;;;10.63;5.60;;;21.70;99.90;;;;;;4972435;28;20234;-80
2023/05/27 07:03:35;;;;;;;10.03;5.40;;;21.50;99.90;;;;;;4983916;28;20225;-79
2023/05/27 07:06:07;;;;;;;7.37;5.03;;;21.50;99.90;;;;;;4972431;28;20202;-81
2023/05/27 07:08:42;;;;;;;12.27;7.20;;;21.50;99.90;;;;;;4977631;28;20217;-80
2023/05/27 07:11:19;;;;;;;10.60;7.07;;;21.60;99.90;;;;;;4973550;28;20206;-80
2023/05/27 07:13:46;;;;;;;10.43;5.20;;;21.40;99.90;;;;;;4971910;28;20214;-81
2023/05/27 07:16:18;;;;;;;9.50;6.00;;;21.60;99.90;;;;;;4968089;28;20198;-79
2023/05/27 07:18:47;;;;;;;11.10;6.00;;;21.80;99.90;;;;;;4972519;28;20679;-81
2023/05/27 07:21:14;;;;;;;14.00;8.27;;;21.80;99.90;;;;;;4972223;28;20743;-79
2023/05/27 07:23:42;;;;;;;11.10;7.77;;;21.70;99.90;;;;;;4972724;28;20222;-79
2023/05/27 07:26:25;;;;;;;8.70;6.17;;;21.80;99.90;;;;;;4978353;28;20201;-75
2023/05/27 07:28:52;;;;;;;12.50;7.03;;;21.70;99.90;;;;;;4973602;28;20375;-78
2023/05/27 07:31:48;;;;;;;11.20;8.07;;;21.60;99.90;;;;;;4976052;28;20269;-78
2023/05/27 07:34:20;;;;;;;11.53;5.90;;;21.90;99.90;;;;;;4967482;28;20223;-77
2023/05/27 07:36:48;;;;;;;10.83;6.53;;;21.80;99.90;;;;;;4971291;28;20194;-79
2023/05/27 07:39:15;;;;;;;8.63;7.30;;;21.60;99.90;;;;;;4967752;28;20218;-78
2023/05/27 07:41:42;;;;;;;10.80;7.83;;;22.10;99.90;;;;;;4962712;28;20199;-79
2023/05/27 07:44:09;;;;;;;9.13;7.10;;;22.50;99.90;;;;;;4975001;28;20226;-79
2023/05/27 07:46:38;;;;;;;10.57;7.37;;;22.60;99.90;;;;;;4975441;28;20198;-77
2023/05/27 07:49:06;;;;;;;11.27;8.40;;;23.10;99.90;;;;;;4974966;28;20232;-79
2023/05/27 07:51:39;;;;;;;10.53;6.57;;;23.30;99.90;;;;;;4983625;28;20225;-77
2023/05/27 07:54:06;;;;;;;11.23;5.83;;;23.70;99.90;;;;;;4975501;28;20573;-78
2023/05/27 07:56:34;;;;;;;12.23;7.63;;;23.60;99.90;;;;;;4976127;28;20190;-77
2023/05/27 07:59:01;;;;;;;12.90;5.87;;;23.50;99.90;;;;;;4977006;28;20194;-78
2023/05/27 08:01:32;;;;;;;10.27;5.23;;;23.20;99.90;;;;;;4976767;28;20249;-78
2023/05/27 08:03:59;;;;;;;10.93;8.37;;;23.40;99.90;;;;;;4974767;28;20342;-77
2023/05/27 08:06:56;;;;;;;10.80;6.60;;;23.60;99.90;;;;;;4956943;28;20213;-78
2023/05/27 08:09:46;;;;;;;10.80;6.40;;;23.70;99.90;;;;;;4976111;28;20214;-82
2023/05/27 08:12:25;;;;;;;10.60;4.70;;;23.50;99.90;;;;;;4973222;28;20214;-77
2023/05/27 08:15:10;;;;;;;10.27;7.90;;;23.60;99.90;;;;;;4975714;28;20229;-77
2023/05/27 08:18:03;;;;;;;11.60;6.07;;;23.60;99.90;;;;;;4975694;28;20711;-79
2023/05/27 08:20:43;;;;;;;11.27;6.50;;;24.00;99.90;;;;;;4975912;28;20261;-79
2023/05/27 08:23:25;;;;;;;13.57;7.30;;;24.10;99.90;;;;;;4969565;28;20237;-78
2023/05/27 08:25:59;;;;;;;10.97;7.87;;;24.30;99.90;;;;;;4972771;28;20206;-81
2023/05/27 08:28:36;;;;;;;10.47;8.43;;;24.30;99.90;;;;;;4984560;28;20305;-79
2023/05/27 08:31:22;;;;;;;10.97;8.60;;;24.40;99.90;;;;;;4975120;28;20312;-79
2023/05/27 08:33:53;;;;;;;13.23;9.17;;;23.60;99.90;;;;;;4975412;28;20241;-78
2023/05/27 08:36:20;;;;;;;11.47;9.30;;;23.20;99.90;;;;;;4975582;28;20201;-78
2023/05/27 08:38:50;;;;;;;14.47;10.67;;;23.40;99.90;;;;;;4975618;28;20618;-77
2023/05/27 08:41:21;;;;;;;13.13;9.47;;;23.50;99.90;;;;;;4983189;28;20614;-78
2023/05/27 08:43:49;;;;;;;9.33;7.00;;;23.90;99.90;;;;;;4974808;28;20217;-79
2023/05/27 08:46:17;;;;;;;11.90;8.57;;;24.40;99.90;;;;;;4967213;28;20201;-78
2023/05/27 08:48:45;;;;;;;12.50;7.93;;;24.80;99.90;;;;;;4972100;28;20254;-78
2023/05/27 08:51:13;;;;;;;13.97;7.63;;;24.90;99.90;;;;;;4974505;28;20944;-78
2023/05/27 08:53:44;;;;;;;10.80;7.90;;;24.90;99.90;;;;;;4974240;28;20696;-82
2023/05/27 08:56:15;;;;;;;10.03;7.13;;;24.90;99.90;;;;;;4974940;28;20206;-78
2023/05/27 08:58:45;;;;;;;10.63;6.53;;;24.90;99.90;;;;;;4970663;28;20617;-80
2023/05/27 09:01:13;;;;;;;13.07;7.10;;;25.00;99.90;;;;;;4975176;28;20222;-78
2023/05/27 09:03:40;;;;;;;12.77;6.67;;;25.20;99.90;;;;;;4974962;28;20304;-78
2023/05/27 09:06:07;;;;;;;10.40;6.10;;;25.10;99.90;;;;;;4972762;28;20621;-78
2023/05/27 09:08:34;;;;;;;13.03;6.77;;;24.80;99.90;;;;;;4976377;28;20201;-78
2023/05/27 09:11:02;;;;;;;9.67;6.80;;;24.40;99.90;;;;;;4976132;28;20724;-77
2023/05/27 09:13:31;;;;;;;14.40;6.73;;;24.80;99.90;;;;;;4976111;28;20221;-78
2023/05/27 09:16:01;;;;;;;11.63;6.57;;;24.70;99.90;;;;;;4975961;28;20747;-79
2023/05/27 09:18:28;;;;;;;10.23;6.13;;;24.40;99.90;;;;;;4976072;28;20677;-80
2023/05/27 09:20:56;;;;;;;12.47;7.90;;;24.70;99.90;;;;;;4974935;28;20249;-78
2023/05/27 09:23:23;;;;;;;9.07;8.07;;;24.90;99.90;;;;;;4959847;28;20305;-78
2023/05/27 09:25:50;;;;;;;9.53;5.50;;;25.10;99.90;;;;;;4975555;28;20209;-78
2023/05/27 09:28:22;;;;;;;11.47;5.50;;;25.40;99.90;;;;;;4972051;28;20197;-78
2023/05/27 09:31:00;;;;;;;9.57;6.10;;;25.30;99.90;;;;;;4974074;28;20724;-79
2023/05/27 09:33:27;;;;;;;10.23;6.80;;;25.00;99.90;;;;;;4975377;28;20636;-78
2023/05/27 09:35:53;;;;;;;9.37;5.20;;;25.20;99.90;;;;;;4974875;28;20285;-79
2023/05/27 09:38:20;;;;;;;10.37;5.53;;;25.10;99.90;;;;;;4965001;28;20216;-78
2023/05/27 09:40:47;;;;;;;8.20;7.40;;;25.10;99.90;;;;;;4975645;28;20225;-78
2023/05/27 09:43:15;;;;;;;10.20;8.47;;;25.30;99.90;;;;;;4974608;28;20225;-79
2023/05/27 09:45:42;;;;;;;10.17;8.67;;;25.40;99.90;;;;;;4974196;28;20202;-78
2023/05/27 09:48:13;;;;;;;11.23;8.57;;;25.50;99.90;;;;;;4974292;28;20206;-79
2023/05/27 09:50:41;;;;;;;8.27;5.43;;;25.80;99.90;;;;;;4974738;28;20442;-78
2023/05/27 09:53:08;;;;;;;11.90;5.47;;;26.00;99.90;;;;;;4973888;28;20202;-78
2023/05/27 09:55:35;;;;;;;7.70;4.87;;;26.20;99.90;;;;;;4973380;28;20198;-78
2023/05/27 09:58:02;;;;;;;8.27;6.00;;;26.10;99.90;;;;;;4973829;28;20285;-82
2023/05/27 10:00:31;;;;;;;11.60;5.30;;;26.30;99.90;;;;;;4975520;28;20260;-81
2023/05/27 10:03:02;;;;;;;10.00;5.10;;;25.90;99.90;;;;;;4973133;28;20568;-78
2023/05/27 10:05:30;;;;;;;13.37;5.50;;;26.10;99.90;;;;;;4974218;28;20194;-78
2023/05/27 10:07:59;;;;;;;7.90;5.00;;;26.10;99.90;;;;;;4974467;28;20280;-79
2023/05/27 10:10:26;;;;;;;9.80;8.10;;;26.20;99.90;;;;;;4972737;28;20284;-78
2023/05/27 10:12:55;;;;;;;9.97;5.57;;;26.00;99.90;;;;;;4974282;28;20190;-81
2023/05/27 10:15:23;;;;;;;10.17;5.50;;;26.20;99.90;;;;;;4977440;28;20592;-83
2023/05/27 10:17:54;;;;;;;12.63;5.67;;;26.40;99.90;;;;;;4977612;28;20210;-79
2023/05/27 10:20:31;;;;;;;11.07;7.80;;;26.30;99.90;;;;;;4966380;28;20244;-81
2023/05/27 10:23:09;;;;;;;9.43;6.00;;;26.20;99.90;;;;;;4971200;28;20229;-81
2023/05/27 10:25:37;;;;;;;8.90;6.07;;;25.90;99.90;;;;;;4975641;28;20212;-81
2023/05/27 10:28:04;;;;;;;10.17;5.67;;;25.90;99.90;;;;;;4973196;28;20205;-81
2023/05/27 10:30:42;;;;;;;9.43;4.60;;;26.00;99.90;;;;;;4973287;28;20609;-81
2023/05/27 10:33:09;;;;;;;9.57;5.40;;;26.20;99.90;;;;;;4972975;28;20206;-82
2023/05/27 10:35:42;;;;;;;12.10;6.13;;;25.90;99.90;;;;;;4974063;28;20194;-81
2023/05/27 10:38:21;;;;;;;7.60;4.70;;;25.30;99.90;;;;;;4974473;28;20198;-81
2023/05/27 10:40:48;;;;;;;7.83;5.33;;;25.50;99.90;;;;;;4973401;28;20197;-81
2023/05/27 10:43:20;;;;;;;9.93;6.27;;;25.30;99.90;;;;;;4972807;28;20249;-83
2023/05/27 10:45:47;;;;;;;8.37;6.87;;;24.80;99.90;;;;;;4973975;28;20264;-81
2023/05/27 10:48:19;;;;;;;10.43;6.10;;;25.00;99.90;;;;;;4974086;28;20205;-82
2023/05/27 10:50:59;;;;;;;8.47;5.63;;;25.20;99.90;;;;;;4973108;28;20226;-84
2023/05/27 10:53:27;;;;;;;7.97;5.47;;;24.80;99.90;;;;;;4970835;28;20229;-81
2023/05/27 10:55:54;;;;;;;8.23;5.33;;;24.80;99.90;;;;;;4979925;28;20196;-82
2023/05/27 10:58:21;;;;;;;8.20;5.80;;;24.90;99.90;;;;;;4977356;28;20695;-82
2023/05/27 11:00:50;;;;;;;9.37;6.10;;;24.60;99.90;;;;;;4973717;28;20225;-83
2023/05/27 11:03:19;;;;;;;8.23;7.37;;;24.70;99.90;;;;;;4989994;28;20263;-82
2023/05/27 11:05:46;;;;;;;10.17;6.40;;;24.80;99.90;;;;;;4979300;28;20204;-82
2023/05/27 11:08:14;;;;;;;7.97;5.80;;;24.90;99.90;;;;;;4973618;28;20205;-81
2023/05/27 11:10:42;;;;;;;8.50;5.20;;;24.60;99.90;;;;;;4981484;28;20220;-80
2023/05/27 11:13:09;;;;;;;8.80;6.97;;;24.30;99.90;;;;;;4973123;28;20204;-82
2023/05/27 11:15:36;;;;;;;10.40;8.10;;;24.50;99.90;;;;;;4973430;28;20249;-80
2023/05/27 11:18:03;;;;;;;10.17;7.87;;;24.30;99.90;;;;;;4967082;28;20230;-81
2023/05/27 11:20:36;;;;;;;8.63;7.07;;;24.00;99.90;;;;;;4967859;28;20198;-81
2023/05/27 11:23:03;;;;;;;9.43;7.10;;;24.20;99.90;;;;;;4964761;28;20202;-81
2023/05/27 11:25:42;;;;;;;8.77;6.37;;;24.30;99.90;;;;;;4978173;28;20301;-82
2023/05/27 11:28:17;;;;;;;10.27;7.00;;;24.20;99.90;;;;;;4972867;28;20202;-82
2023/05/27 11:30:58;;;;;;;9.70;8.70;;;24.10;99.90;;;;;;4978500;28;20251;-81
2023/05/27 11:33:34;;;;;;;11.67;9.00;;;24.10;99.90;;;;;;4976470;28;20225;-81
2023/05/27 11:36:08;;;;;;;11.50;7.87;;;24.00;99.90;;;;;;4975500;28;20248;-82
2023/05/27 11:38:59;;;;;;;9.23;7.70;;;24.30;99.90;;;;;;4986993;28;20224;-82
2023/05/27 11:42:06;;;;;;;10.03;8.50;;;24.40;99.90;;;;;;4971471;28;20265;-81
2023/05/27 11:44:51;;;;;;;8.30;7.23;;;24.20;99.90;;;;;;4973471;28;20727;-82
2023/05/27 11:47:18;;;;;;;11.43;8.47;;;24.30;99.90;;;;;;4981373;28;20272;-82
2023/05/27 11:49:46;;;;;;;10.30;8.03;;;24.30;99.90;;;;;;4966085;28;20222;-82
2023/05/27 11:52:13;;;;;;;10.83;8.13;;;24.40;99.90;;;;;;4978625;28;20217;-81
2023/05/27 11:54:40;;;;;;;8.90;8.00;;;24.20;99.90;;;;;;4976717;28;20214;-82
2023/05/27 11:57:25;;;;;;;8.87;7.87;;;24.20;99.90;;;;;;4979911;28;20719;-82
2023/05/27 12:00:15;;;;;;;11.50;8.03;;;24.20;99.90;;;;;;4972991;28;20194;-82
2023/05/27 12:02:58;;;;;;;9.97;7.30;;;24.10;99.90;;;;;;4972543;28;20193;-81
2023/05/27 12:05:30;;;;;;;9.40;7.30;;;24.10;99.90;;;;;;4980604;28;20674;-81
2023/05/27 12:07:57;;;;;;;10.43;8.10;;;24.00;99.90;;;;;;4977084;28;20194;-82
2023/05/27 12:10:23;;;;;;;9.00;7.33;;;24.20;99.90;;;;;;4974467;28;20213;-81
2023/05/27 12:12:50;;;;;;;9.93;8.90;;;24.30;99.90;;;;;;4978681;28;20202;-81
2023/05/27 12:15:31;;;;;;;11.17;7.23;;;23.80;99.90;;;;;;4971749;28;20660;-83
2023/05/27 12:21:10;;;;;;;9.97;8.87;;;23.60;99.90;;;;;;4958464;28;20232;-81
2023/05/27 12:23:37;;;;;;;12.23;8.50;;;23.80;99.90;;;;;;4973101;28;20280;-81
2023/05/27 12:26:06;;;;;;;10.63;5.53;;;23.80;99.90;;;;;;4975148;28;20248;-82
2023/05/27 12:28:33;;;;;;;10.90;9.23;;;23.80;99.90;;;;;;4987231;28;20251;-82
2023/05/27 12:31:01;;;;;;;10.47;9.17;;;23.50;99.90;;;;;;4974969;28;20222;-83
2023/05/27 12:33:31;;;;;;;13.50;6.30;;;23.50;99.90;;;;;;4967215;28;20708;-82
2023/05/27 12:36:04;;;;;;;10.43;9.27;;;23.40;99.90;;;;;;4979671;28;20676;-83
2023/05/27 12:38:31;;;;;;;9.20;5.73;;;23.50;99.90;;;;;;4975089;28;20197;-82
2023/05/27 12:41:03;;;;;;;8.30;5.30;;;23.60;99.90;;;;;;4969258;28;20269;-82
2023/05/27 12:43:32;;;;;;;9.00;5.70;;;23.60;99.90;;;;;;4990155;28;20283;-82
2023/05/27 12:45:59;;;;;;;8.53;5.97;;;23.70;99.90;;;;;;4979606;28;20208;-83
2023/05/27 12:48:27;;;;;;;8.10;5.43;;;23.60;99.90;;;;;;4975485;28;20284;-81
2023/05/27 12:50:55;;;;;;;10.13;5.70;;;23.80;99.90;;;;;;4979402;28;20214;-82
2023/05/27 12:53:22;;;;;;;8.43;5.83;;;23.80;99.90;;;;;;4982490;28;20819;-81
2023/05/27 12:55:49;;;;;;;11.30;6.43;;;23.80;99.90;;;;;;4975182;28;20661;-81
2023/05/27 12:58:16;;;;;;;9.47;6.07;;;23.80;99.90;;;;;;4986211;28;20705;-82
2023/05/27 13:00:44;;;;;;;8.10;5.67;;;23.70;99.90;;;;;;4979471;28;20223;-82
2023/05/27 13:03:11;;;;;;;9.97;6.10;;;23.70;99.90;;;;;;4974864;28;20217;-81
2023/05/27 13:05:40;;;;;;;11.07;6.33;;;23.70;99.90;;;;;;4974421;28;20206;-82
2023/05/27 13:08:07;;;;;;;9.50;7.67;;;23.70;99.90;;;;;;4986236;28;20273;-82
2023/05/27 13:10:36;;;;;;;11.97;8.00;;;23.60;99.90;;;;;;4975061;28;20592;-83
2023/05/27 13:13:03;;;;;;;14.57;10.33;;;23.50;99.90;;;;;;4972281;28;20213;-81